sensor_id;sensor_type;location;lat;lon;timestamp;P1;durP1;ratioP1;P2;durP2;ratioP2
71046;SDS011;58703;48.978;8.982;2023-07-02T00:00:02;3.97;;;3.15;;
71046;SDS011;58703;48.978;8.982;2023-07-02T00:02:31;4.82;;;3.13;;
71046;SDS011;58703;48.978;8.982;2023-07-02T00:04:57;3.57;;;3.20;;
71046;SDS011;58703;48.978;8.982;2023-07-02T00:07:22;4.50;;;2.95;;
71046;SDS011;58703;48.978;8.982;2023-07-02T00:09:52;6.28;;;3.47;;
71046;SDS011;58703;48.978;8.982;2023-07-02T00:12:20;3.33;;;3.03;;
71046;SDS011;58703;48.978;8.982;2023-07-02T00:14:45;3.00;;;2.63;;
71046;SDS011;58703;48.978;8.982;2023-07-02T00:17:12;4.87;;;3.03;;
71046;SDS011;58703;48.978;8.982;2023-07-02T00:19:39;3.30;;;2.90;;
71046;SDS011;58703;48.978;8.982;2023-07-02T00:22:08;4.63;;;2.72;;
71046;SDS011;58703;48.978;8.982;2023-07-02T00:24:34;4.07;;;3.00;;
71046;SDS011;58703;48.978;8.982;2023-07-02T00:27:01;4.00;;;2.88;;
71046;SDS011;58703;48.978;8.982;2023-07-02T00:29:28;2.60;;;2.40;;
71046;SDS011;58703;48.978;8.982;2023-07-02T00:31:55;3.58;;;2.80;;
71046;SDS011;58703;48.978;8.982;2023-07-02T00:34:20;6.50;;;3.45;;
71046;SDS011;58703;48.978;8.982;2023-07-02T00:36:47;4.50;;;3.10;;
71046;SDS011;58703;48.978;8.982;2023-07-02T00:39:14;3.90;;;3.38;;
71046;SDS011;58703;48.978;8.982;2023-07-02T00:41:42;6.32;;;2.92;;
71046;SDS011;58703;48.978;8.982;2023-07-02T00:44:08;5.13;;;3.20;;
71046;SDS011;58703;48.978;8.982;2023-07-02T00:46:36;4.40;;;3.50;;
71046;SDS011;58703;48.978;8.982;2023-07-02T00:49:02;4.70;;;2.90;;
71046;SDS011;58703;48.978;8.982;2023-07-02T00:51:31;4.35;;;3.20;;
71046;SDS011;58703;48.978;8.982;2023-07-02T00:53:57;3.97;;;2.83;;
71046;SDS011;58703;48.978;8.982;2023-07-02T00:56:26;4.03;;;3.00;;
71046;SDS011;58703;48.978;8.982;2023-07-02T00:58:53;3.38;;;2.55;;
71046;SDS011;58703;48.978;8.982;2023-07-02T01:01:23;4.88;;;2.70;;
71046;SDS011;58703;48.978;8.982;2023-07-02T01:04:00;3.40;;;2.60;;
71046;SDS011;58703;48.978;8.982;2023-07-02T01:06:27;3.40;;;2.67;;
71046;SDS011;58703;48.978;8.982;2023-07-02T01:08:59;3.38;;;2.88;;
71046;SDS011;58703;48.978;8.982;2023-07-02T01:14:06;3.67;;;2.83;;
71046;SDS011;58703;48.978;8.982;2023-07-02T01:16:35;4.22;;;2.92;;
71046;SDS011;58703;48.978;8.982;2023-07-02T01:19:04;5.47;;;3.40;;
71046;SDS011;58703;48.978;8.982;2023-07-02T01:21:34;4.90;;;3.42;;
71046;SDS011;58703;48.978;8.982;2023-07-02T01:24:00;5.47;;;3.85;;
71046;SDS011;58703;48.978;8.982;2023-07-02T01:26:30;5.47;;;3.60;;
71046;SDS011;58703;48.978;8.982;2023-07-02T01:29:13;4.97;;;3.95;;
71046;SDS011;58703;48.978;8.982;2023-07-02T01:31:46;5.73;;;3.67;;
71046;SDS011;58703;48.978;8.982;2023-07-02T01:34:12;3.65;;;3.35;;
71046;SDS011;58703;48.978;8.982;2023-07-02T01:36:40;3.92;;;3.15;;
71046;SDS011;58703;48.978;8.982;2023-07-02T01:39:06;5.65;;;3.53;;
71046;SDS011;58703;48.978;8.982;2023-07-02T01:41:49;5.00;;;3.17;;
71046;SDS011;58703;48.978;8.982;2023-07-02T01:44:16;5.13;;;2.80;;
71046;SDS011;58703;48.978;8.982;2023-07-02T01:46:43;4.97;;;3.25;;
71046;SDS011;58703;48.978;8.982;2023-07-02T01:49:10;7.18;;;3.08;;
71046;SDS011;58703;48.978;8.982;2023-07-02T01:51:35;6.83;;;3.63;;
71046;SDS011;58703;48.978;8.982;2023-07-02T01:54:02;7.17;;;3.07;;
71046;SDS011;58703;48.978;8.982;2023-07-02T01:56:28;5.55;;;2.95;;
71046;SDS011;58703;48.978;8.982;2023-07-02T01:58:54;8.88;;;3.10;;
71046;SDS011;58703;48.978;8.982;2023-07-02T02:01:22;6.75;;;2.45;;
71046;SDS011;58703;48.978;8.982;2023-07-02T02:03:49;7.60;;;3.20;;
71046;SDS011;58703;48.978;8.982;2023-07-02T02:06:15;4.43;;;2.90;;
71046;SDS011;58703;48.978;8.982;2023-07-02T02:08:41;6.90;;;2.83;;
71046;SDS011;58703;48.978;8.982;2023-07-02T02:11:08;3.17;;;2.73;;
71046;SDS011;58703;48.978;8.982;2023-07-02T02:13:34;5.40;;;2.67;;
71046;SDS011;58703;48.978;8.982;2023-07-02T02:16:00;10.00;;;2.87;;
71046;SDS011;58703;48.978;8.982;2023-07-02T02:18:26;7.13;;;3.33;;
71046;SDS011;58703;48.978;8.982;2023-07-02T02:20:52;6.00;;;3.20;;
71046;SDS011;58703;48.978;8.982;2023-07-02T02:23:18;7.60;;;3.37;;
71046;SDS011;58703;48.978;8.982;2023-07-02T02:25:43;5.83;;;3.07;;
71046;SDS011;58703;48.978;8.982;2023-07-02T02:28:11;11.80;;;3.53;;
71046;SDS011;58703;48.978;8.982;2023-07-02T02:30:38;11.15;;;3.67;;
71046;SDS011;58703;48.978;8.982;2023-07-02T02:33:03;9.30;;;3.42;;
71046;SDS011;58703;48.978;8.982;2023-07-02T02:35:29;7.83;;;3.23;;
71046;SDS011;58703;48.978;8.982;2023-07-02T02:37:56;5.90;;;2.70;;
71046;SDS011;58703;48.978;8.982;2023-07-02T02:40:22;9.27;;;3.30;;
71046;SDS011;58703;48.978;8.982;2023-07-02T02:42:48;5.07;;;3.30;;
71046;SDS011;58703;48.978;8.982;2023-07-02T02:45:15;9.30;;;4.03;;
71046;SDS011;58703;48.978;8.982;2023-07-02T02:47:41;8.73;;;3.78;;
71046;SDS011;58703;48.978;8.982;2023-07-02T02:50:08;6.17;;;3.50;;
71046;SDS011;58703;48.978;8.982;2023-07-02T02:52:36;8.10;;;3.65;;
71046;SDS011;58703;48.978;8.982;2023-07-02T02:55:01;9.90;;;4.47;;
71046;SDS011;58703;48.978;8.982;2023-07-02T02:57:28;10.57;;;3.70;;
71046;SDS011;58703;48.978;8.982;2023-07-02T02:59:55;9.18;;;4.13;;
71046;SDS011;58703;48.978;8.982;2023-07-02T03:02:21;11.35;;;3.90;;
71046;SDS011;58703;48.978;8.982;2023-07-02T03:04:47;8.18;;;3.42;;
71046;SDS011;58703;48.978;8.982;2023-07-02T03:07:15;8.02;;;3.42;;
71046;SDS011;58703;48.978;8.982;2023-07-02T03:09:43;10.07;;;3.30;;
71046;SDS011;58703;48.978;8.982;2023-07-02T03:12:09;9.25;;;3.30;;
71046;SDS011;58703;48.978;8.982;2023-07-02T03:14:35;10.88;;;3.40;;
71046;SDS011;58703;48.978;8.982;2023-07-02T03:17:02;10.03;;;3.77;;
71046;SDS011;58703;48.978;8.982;2023-07-02T03:19:29;9.60;;;3.83;;
71046;SDS011;58703;48.978;8.982;2023-07-02T03:21:57;9.98;;;3.83;;
71046;SDS011;58703;48.978;8.982;2023-07-02T03:24:25;10.82;;;4.25;;
71046;SDS011;58703;48.978;8.982;2023-07-02T03:26:52;12.05;;;4.47;;
71046;SDS011;58703;48.978;8.982;2023-07-02T03:29:17;9.87;;;4.77;;
71046;SDS011;58703;48.978;8.982;2023-07-02T03:31:46;13.70;;;4.80;;
71046;SDS011;58703;48.978;8.982;2023-07-02T03:34:13;11.63;;;4.70;;
71046;SDS011;58703;48.978;8.982;2023-07-02T03:36:40;13.17;;;4.47;;
71046;SDS011;58703;48.978;8.982;2023-07-02T03:39:05;15.05;;;5.63;;
71046;SDS011;58703;48.978;8.982;2023-07-02T03:41:34;12.43;;;5.13;;
71046;SDS011;58703;48.978;8.982;2023-07-02T03:44:00;9.15;;;4.43;;
71046;SDS011;58703;48.978;8.982;2023-07-02T03:46:27;11.20;;;4.32;;
71046;SDS011;58703;48.978;8.982;2023-07-02T03:48:53;7.90;;;4.80;;
71046;SDS011;58703;48.978;8.982;2023-07-02T03:51:19;8.60;;;4.60;;
71046;SDS011;58703;48.978;8.982;2023-07-02T03:53:46;9.20;;;4.78;;
71046;SDS011;58703;48.978;8.982;2023-07-02T03:56:12;11.18;;;4.90;;
71046;SDS011;58703;48.978;8.982;2023-07-02T03:58:39;8.23;;;4.90;;
71046;SDS011;58703;48.978;8.982;2023-07-02T04:01:06;10.25;;;4.18;;
71046;SDS011;58703;48.978;8.982;2023-07-02T04:03:33;15.10;;;5.03;;
71046;SDS011;58703;48.978;8.982;2023-07-02T04:06:00;9.95;;;4.45;;
71046;SDS011;58703;48.978;8.982;2023-07-02T04:08:27;13.05;;;5.13;;
71046;SDS011;58703;48.978;8.982;2023-07-02T04:10:56;7.50;;;4.03;;
71046;SDS011;58703;48.978;8.982;2023-07-02T04:13:23;7.28;;;4.32;;
71046;SDS011;58703;48.978;8.982;2023-07-02T04:15:49;13.13;;;4.10;;
71046;SDS011;58703;48.978;8.982;2023-07-02T04:18:16;6.97;;;3.70;;
71046;SDS011;58703;48.978;8.982;2023-07-02T04:20:41;11.68;;;4.15;;
71046;SDS011;58703;48.978;8.982;2023-07-02T04:23:07;7.35;;;3.90;;
71046;SDS011;58703;48.978;8.982;2023-07-02T04:25:34;8.03;;;4.30;;
71046;SDS011;58703;48.978;8.982;2023-07-02T04:28:00;8.23;;;4.35;;
71046;SDS011;58703;48.978;8.982;2023-07-02T04:30:27;8.45;;;4.28;;
71046;SDS011;58703;48.978;8.982;2023-07-02T04:32:54;12.27;;;4.63;;
71046;SDS011;58703;48.978;8.982;2023-07-02T04:35:21;6.00;;;4.03;;
71046;SDS011;58703;48.978;8.982;2023-07-02T04:37:47;7.15;;;3.67;;
71046;SDS011;58703;48.978;8.982;2023-07-02T04:40:15;4.90;;;3.30;;
71046;SDS011;58703;48.978;8.982;2023-07-02T04:42:42;10.68;;;3.45;;
71046;SDS011;58703;48.978;8.982;2023-07-02T04:45:12;9.50;;;3.63;;
71046;SDS011;58703;48.978;8.982;2023-07-02T04:47:45;7.80;;;3.33;;
71046;SDS011;58703;48.978;8.982;2023-07-02T04:50:10;6.00;;;3.40;;
71046;SDS011;58703;48.978;8.982;2023-07-02T04:52:41;5.68;;;3.28;;
71046;SDS011;58703;48.978;8.982;2023-07-02T04:55:06;9.35;;;3.47;;
71046;SDS011;58703;48.978;8.982;2023-07-02T04:57:33;7.07;;;3.20;;
71046;SDS011;58703;48.978;8.982;2023-07-02T05:00:00;7.43;;;2.85;;
71046;SDS011;58703;48.978;8.982;2023-07-02T05:02:26;8.13;;;2.83;;
71046;SDS011;58703;48.978;8.982;2023-07-02T05:04:53;8.07;;;3.83;;
71046;SDS011;58703;48.978;8.982;2023-07-02T05:07:20;7.40;;;3.47;;
71046;SDS011;58703;48.978;8.982;2023-07-02T05:09:48;7.28;;;3.47;;
71046;SDS011;58703;48.978;8.982;2023-07-02T05:12:17;8.20;;;3.40;;
71046;SDS011;58703;48.978;8.982;2023-07-02T05:14:44;5.53;;;3.10;;
71046;SDS011;58703;48.978;8.982;2023-07-02T05:17:11;7.57;;;3.23;;
71046;SDS011;58703;48.978;8.982;2023-07-02T05:19:36;5.93;;;3.10;;
71046;SDS011;58703;48.978;8.982;2023-07-02T05:22:02;7.23;;;3.27;;
71046;SDS011;58703;48.978;8.982;2023-07-02T05:24:27;7.13;;;2.83;;
71046;SDS011;58703;48.978;8.982;2023-07-02T05:26:54;7.00;;;3.00;;
71046;SDS011;58703;48.978;8.982;2023-07-02T05:29:20;13.10;;;3.80;;
71046;SDS011;58703;48.978;8.982;2023-07-02T05:31:48;5.65;;;3.38;;
71046;SDS011;58703;48.978;8.982;2023-07-02T05:34:14;9.48;;;3.70;;
71046;SDS011;58703;48.978;8.982;2023-07-02T05:36:42;10.07;;;3.58;;
71046;SDS011;58703;48.978;8.982;2023-07-02T05:39:10;6.68;;;3.53;;
71046;SDS011;58703;48.978;8.982;2023-07-02T05:41:37;8.30;;;3.90;;
71046;SDS011;58703;48.978;8.982;2023-07-02T05:44:03;7.40;;;3.42;;
71046;SDS011;58703;48.978;8.982;2023-07-02T05:46:30;5.60;;;3.30;;
71046;SDS011;58703;48.978;8.982;2023-07-02T05:48:57;6.63;;;3.85;;
71046;SDS011;58703;48.978;8.982;2023-07-02T05:51:24;8.40;;;3.92;;
71046;SDS011;58703;48.978;8.982;2023-07-02T05:53:51;6.87;;;4.00;;
71046;SDS011;58703;48.978;8.982;2023-07-02T05:56:17;7.35;;;3.70;;
71046;SDS011;58703;48.978;8.982;2023-07-02T05:58:45;7.03;;;3.72;;
71046;SDS011;58703;48.978;8.982;2023-07-02T06:01:11;9.32;;;3.67;;
71046;SDS011;58703;48.978;8.982;2023-07-02T06:03:38;12.63;;;4.07;;
71046;SDS011;58703;48.978;8.982;2023-07-02T06:06:05;8.57;;;3.65;;
71046;SDS011;58703;48.978;8.982;2023-07-02T06:08:31;9.25;;;3.50;;
71046;SDS011;58703;48.978;8.982;2023-07-02T06:10:56;12.20;;;4.10;;
71046;SDS011;58703;48.978;8.982;2023-07-02T06:13:23;10.13;;;4.90;;
71046;SDS011;58703;48.978;8.982;2023-07-02T06:15:49;9.13;;;3.55;;
71046;SDS011;58703;48.978;8.982;2023-07-02T06:18:15;10.30;;;4.80;;
71046;SDS011;58703;48.978;8.982;2023-07-02T06:20:44;10.77;;;4.30;;
71046;SDS011;58703;48.978;8.982;2023-07-02T06:23:12;7.72;;;4.30;;
71046;SDS011;58703;48.978;8.982;2023-07-02T06:25:37;8.40;;;4.43;;
71046;SDS011;58703;48.978;8.982;2023-07-02T06:28:04;7.57;;;3.95;;
71046;SDS011;58703;48.978;8.982;2023-07-02T06:30:30;10.03;;;4.83;;
71046;SDS011;58703;48.978;8.982;2023-07-02T06:32:55;12.07;;;4.70;;
71046;SDS011;58703;48.978;8.982;2023-07-02T06:35:23;12.73;;;4.70;;
71046;SDS011;58703;48.978;8.982;2023-07-02T06:37:49;11.15;;;4.70;;
71046;SDS011;58703;48.978;8.982;2023-07-02T06:40:15;7.72;;;4.03;;
71046;SDS011;58703;48.978;8.982;2023-07-02T06:42:42;8.77;;;4.47;;
71046;SDS011;58703;48.978;8.982;2023-07-02T06:45:07;9.70;;;4.83;;
71046;SDS011;58703;48.978;8.982;2023-07-02T06:47:33;9.23;;;4.57;;
71046;SDS011;58703;48.978;8.982;2023-07-02T06:50:00;11.73;;;4.80;;
71046;SDS011;58703;48.978;8.982;2023-07-02T06:52:27;11.90;;;5.03;;
71046;SDS011;58703;48.978;8.982;2023-07-02T06:54:52;11.85;;;4.80;;
71046;SDS011;58703;48.978;8.982;2023-07-02T06:57:18;11.10;;;4.63;;
71046;SDS011;58703;48.978;8.982;2023-07-02T06:59:46;8.52;;;3.72;;
71046;SDS011;58703;48.978;8.982;2023-07-02T07:02:13;10.32;;;4.60;;
71046;SDS011;58703;48.978;8.982;2023-07-02T07:04:40;7.70;;;4.30;;
71046;SDS011;58703;48.978;8.982;2023-07-02T07:07:07;8.85;;;4.63;;
71046;SDS011;58703;48.978;8.982;2023-07-02T07:09:34;9.63;;;4.03;;
71046;SDS011;58703;48.978;8.982;2023-07-02T07:12:00;9.73;;;4.90;;
71046;SDS011;58703;48.978;8.982;2023-07-02T07:14:26;10.37;;;4.30;;
71046;SDS011;58703;48.978;8.982;2023-07-02T07:16:53;9.63;;;4.07;;
71046;SDS011;58703;48.978;8.982;2023-07-02T07:19:19;7.43;;;3.97;;
71046;SDS011;58703;48.978;8.982;2023-07-02T07:21:47;7.90;;;4.57;;
71046;SDS011;58703;48.978;8.982;2023-07-02T07:24:12;10.25;;;4.78;;
71046;SDS011;58703;48.978;8.982;2023-07-02T07:26:40;9.07;;;5.03;;
71046;SDS011;58703;48.978;8.982;2023-07-02T07:29:07;8.90;;;4.30;;
71046;SDS011;58703;48.978;8.982;2023-07-02T07:31:33;8.48;;;5.30;;
71046;SDS011;58703;48.978;8.982;2023-07-02T07:33:59;11.37;;;5.53;;
71046;SDS011;58703;48.978;8.982;2023-07-02T07:36:26;9.50;;;5.47;;
71046;SDS011;58703;48.978;8.982;2023-07-02T07:38:52;10.88;;;4.65;;
71046;SDS011;58703;48.978;8.982;2023-07-02T07:41:20;11.70;;;5.68;;
71046;SDS011;58703;48.978;8.982;2023-07-02T07:43:47;10.60;;;5.15;;
71046;SDS011;58703;48.978;8.982;2023-07-02T07:46:13;11.70;;;5.93;;
71046;SDS011;58703;48.978;8.982;2023-07-02T07:48:39;13.43;;;5.72;;
71046;SDS011;58703;48.978;8.982;2023-07-02T07:51:05;11.65;;;6.35;;
71046;SDS011;58703;48.978;8.982;2023-07-02T07:53:31;13.10;;;6.73;;
71046;SDS011;58703;48.978;8.982;2023-07-02T07:55:56;11.27;;;6.32;;
71046;SDS011;58703;48.978;8.982;2023-07-02T07:58:24;11.73;;;6.93;;
71046;SDS011;58703;48.978;8.982;2023-07-02T08:00:50;12.13;;;6.55;;
71046;SDS011;58703;48.978;8.982;2023-07-02T08:03:18;13.17;;;7.70;;
71046;SDS011;58703;48.978;8.982;2023-07-02T08:05:44;18.90;;;9.05;;
71046;SDS011;58703;48.978;8.982;2023-07-02T08:08:10;17.25;;;8.18;;
71046;SDS011;58703;48.978;8.982;2023-07-02T08:10:35;17.73;;;7.93;;
71046;SDS011;58703;48.978;8.982;2023-07-02T08:13:02;19.00;;;10.13;;
71046;SDS011;58703;48.978;8.982;2023-07-02T08:15:29;18.77;;;9.67;;
71046;SDS011;58703;48.978;8.982;2023-07-02T08:17:55;20.02;;;10.40;;
71046;SDS011;58703;48.978;8.982;2023-07-02T08:20:24;19.15;;;11.07;;
71046;SDS011;58703;48.978;8.982;2023-07-02T08:22:51;19.50;;;9.77;;
71046;SDS011;58703;48.978;8.982;2023-07-02T08:25:22;15.90;;;8.68;;
71046;SDS011;58703;48.978;8.982;2023-07-02T08:27:47;17.73;;;9.53;;
71046;SDS011;58703;48.978;8.982;2023-07-02T08:30:15;22.10;;;10.27;;
71046;SDS011;58703;48.978;8.982;2023-07-02T08:32:42;19.48;;;9.88;;
71046;SDS011;58703;48.978;8.982;2023-07-02T08:35:09;16.77;;;9.57;;
71046;SDS011;58703;48.978;8.982;2023-07-02T08:37:34;20.93;;;9.87;;
71046;SDS011;58703;48.978;8.982;2023-07-02T08:40:01;17.02;;;10.25;;
71046;SDS011;58703;48.978;8.982;2023-07-02T08:42:28;20.67;;;10.67;;
71046;SDS011;58703;48.978;8.982;2023-07-02T08:44:58;23.65;;;11.43;;
71046;SDS011;58703;48.978;8.982;2023-07-02T08:47:26;23.15;;;11.40;;
71046;SDS011;58703;48.978;8.982;2023-07-02T08:49:54;20.05;;;10.98;;
71046;SDS011;58703;48.978;8.982;2023-07-02T08:52:19;23.77;;;11.38;;
71046;SDS011;58703;48.978;8.982;2023-07-02T08:54:45;25.07;;;11.37;;
71046;SDS011;58703;48.978;8.982;2023-07-02T08:57:10;24.57;;;11.37;;
71046;SDS011;58703;48.978;8.982;2023-07-02T08:59:39;22.15;;;10.88;;
71046;SDS011;58703;48.978;8.982;2023-07-02T09:02:06;22.25;;;11.55;;
71046;SDS011;58703;48.978;8.982;2023-07-02T09:04:31;24.80;;;12.20;;
71046;SDS011;58703;48.978;8.982;2023-07-02T09:07:10;24.53;;;12.07;;
71046;SDS011;58703;48.978;8.982;2023-07-02T09:09:50;23.38;;;11.82;;
71046;SDS011;58703;48.978;8.982;2023-07-02T09:12:22;22.55;;;11.93;;
71046;SDS011;58703;48.978;8.982;2023-07-02T09:15:00;23.90;;;12.35;;
71046;SDS011;58703;48.978;8.982;2023-07-02T09:17:32;23.90;;;13.20;;
71046;SDS011;58703;48.978;8.982;2023-07-02T09:19:59;23.98;;;11.88;;
71046;SDS011;58703;48.978;8.982;2023-07-02T09:22:31;20.85;;;11.82;;
71046;SDS011;58703;48.978;8.982;2023-07-02T09:24:58;22.58;;;12.88;;
71046;SDS011;58703;48.978;8.982;2023-07-02T09:27:35;25.92;;;13.50;;
71046;SDS011;58703;48.978;8.982;2023-07-02T09:30:11;22.63;;;12.20;;
71046;SDS011;58703;48.978;8.982;2023-07-02T09:32:42;25.80;;;12.40;;
71046;SDS011;58703;48.978;8.982;2023-07-02T09:35:11;21.80;;;11.98;;
71046;SDS011;58703;48.978;8.982;2023-07-02T09:37:38;22.92;;;11.40;;
71046;SDS011;58703;48.978;8.982;2023-07-02T09:40:10;24.20;;;12.55;;
71046;SDS011;58703;48.978;8.982;2023-07-02T09:42:38;21.40;;;12.30;;
71046;SDS011;58703;48.978;8.982;2023-07-02T09:45:07;24.27;;;12.68;;
71046;SDS011;58703;48.978;8.982;2023-07-02T09:47:35;26.20;;;12.52;;
71046;SDS011;58703;48.978;8.982;2023-07-02T09:50:06;20.38;;;10.77;;
71046;SDS011;58703;48.978;8.982;2023-07-02T09:52:37;18.98;;;10.52;;
71046;SDS011;58703;48.978;8.982;2023-07-02T09:55:05;31.57;;;12.63;;
71046;SDS011;58703;48.978;8.982;2023-07-02T09:57:33;25.33;;;11.70;;
71046;SDS011;58703;48.978;8.982;2023-07-02T09:59:59;19.33;;;11.15;;
71046;SDS011;58703;48.978;8.982;2023-07-02T10:02:25;24.20;;;12.10;;
71046;SDS011;58703;48.978;8.982;2023-07-02T10:04:52;23.80;;;11.73;;
71046;SDS011;58703;48.978;8.982;2023-07-02T10:07:27;21.05;;;11.75;;
71046;SDS011;58703;48.978;8.982;2023-07-02T10:09:54;21.20;;;11.63;;
71046;SDS011;58703;48.978;8.982;2023-07-02T10:12:23;18.93;;;11.23;;
71046;SDS011;58703;48.978;8.982;2023-07-02T10:14:50;20.63;;;11.20;;
71046;SDS011;58703;48.978;8.982;2023-07-02T10:19:51;20.95;;;10.82;;
71046;SDS011;58703;48.978;8.982;2023-07-02T10:22:21;19.40;;;10.60;;
71046;SDS011;58703;48.978;8.982;2023-07-02T10:24:52;22.17;;;11.23;;
71046;SDS011;58703;48.978;8.982;2023-07-02T10:27:21;20.92;;;10.77;;
71046;SDS011;58703;48.978;8.982;2023-07-02T10:30:03;21.55;;;11.65;;
71046;SDS011;58703;48.978;8.982;2023-07-02T10:32:30;19.58;;;11.07;;
71046;SDS011;58703;48.978;8.982;2023-07-02T10:34:57;20.20;;;10.53;;
71046;SDS011;58703;48.978;8.982;2023-07-02T10:37:26;24.10;;;11.95;;
71046;SDS011;58703;48.978;8.982;2023-07-02T10:39:52;17.85;;;10.55;;
71046;SDS011;58703;48.978;8.982;2023-07-02T10:42:19;19.58;;;11.43;;
71046;SDS011;58703;48.978;8.982;2023-07-02T10:44:52;22.35;;;11.70;;
71046;SDS011;58703;48.978;8.982;2023-07-02T10:47:19;22.70;;;12.23;;
71046;SDS011;58703;48.978;8.982;2023-07-02T10:49:45;20.65;;;10.68;;
71046;SDS011;58703;48.978;8.982;2023-07-02T10:52:11;20.90;;;10.73;;
71046;SDS011;58703;48.978;8.982;2023-07-02T10:57:14;22.13;;;11.20;;
71046;SDS011;58703;48.978;8.982;2023-07-02T10:59:48;19.50;;;10.82;;
71046;SDS011;58703;48.978;8.982;2023-07-02T11:02:15;18.20;;;10.95;;
71046;SDS011;58703;48.978;8.982;2023-07-02T11:04:41;20.38;;;10.32;;
71046;SDS011;58703;48.978;8.982;2023-07-02T11:07:09;20.20;;;10.90;;
71046;SDS011;58703;48.978;8.982;2023-07-02T11:09:37;22.85;;;10.90;;
71046;SDS011;58703;48.978;8.982;2023-07-02T11:12:03;20.42;;;11.10;;
71046;SDS011;58703;48.978;8.982;2023-07-02T11:14:36;19.88;;;10.55;;
71046;SDS011;58703;48.978;8.982;2023-07-02T11:17:04;17.50;;;10.50;;
71046;SDS011;58703;48.978;8.982;2023-07-02T11:19:33;18.80;;;11.80;;
71046;SDS011;58703;48.978;8.982;2023-07-02T11:21:59;22.33;;;10.63;;
71046;SDS011;58703;48.978;8.982;2023-07-02T11:24:36;17.05;;;10.50;;
71046;SDS011;58703;48.978;8.982;2023-07-02T11:27:05;22.33;;;11.50;;
71046;SDS011;58703;48.978;8.982;2023-07-02T11:29:31;19.95;;;9.93;;
71046;SDS011;58703;48.978;8.982;2023-07-02T11:32:05;22.20;;;10.33;;
71046;SDS011;58703;48.978;8.982;2023-07-02T11:34:40;18.88;;;9.43;;
71046;SDS011;58703;48.978;8.982;2023-07-02T11:37:05;23.08;;;10.63;;
71046;SDS011;58703;48.978;8.982;2023-07-02T11:39:31;16.13;;;9.88;;
71046;SDS011;58703;48.978;8.982;2023-07-02T11:41:59;20.53;;;11.47;;
71046;SDS011;58703;48.978;8.982;2023-07-02T11:44:25;22.55;;;11.95;;
71046;SDS011;58703;48.978;8.982;2023-07-02T11:46:52;19.77;;;10.82;;
71046;SDS011;58703;48.978;8.982;2023-07-02T11:49:19;17.27;;;10.50;;
71046;SDS011;58703;48.978;8.982;2023-07-02T11:51:46;18.17;;;11.00;;
71046;SDS011;58703;48.978;8.982;2023-07-02T11:54:20;22.77;;;11.85;;
71046;SDS011;58703;48.978;8.982;2023-07-02T11:56:46;20.40;;;11.07;;
71046;SDS011;58703;48.978;8.982;2023-07-02T11:59:14;20.20;;;11.05;;
71046;SDS011;58703;48.978;8.982;2023-07-02T12:01:41;21.87;;;11.20;;
71046;SDS011;58703;48.978;8.982;2023-07-02T12:04:09;25.38;;;11.27;;
71046;SDS011;58703;48.978;8.982;2023-07-02T12:06:38;20.40;;;10.95;;
71046;SDS011;58703;48.978;8.982;2023-07-02T12:09:06;20.77;;;11.00;;
71046;SDS011;58703;48.978;8.982;2023-07-02T12:11:31;22.58;;;11.68;;
71046;SDS011;58703;48.978;8.982;2023-07-02T12:13:58;21.80;;;11.20;;
71046;SDS011;58703;48.978;8.982;2023-07-02T12:16:24;19.23;;;11.07;;
71046;SDS011;58703;48.978;8.982;2023-07-02T12:18:53;16.07;;;10.23;;
71046;SDS011;58703;48.978;8.982;2023-07-02T12:21:18;19.63;;;10.63;;
71046;SDS011;58703;48.978;8.982;2023-07-02T12:23:45;18.45;;;10.10;;
71046;SDS011;58703;48.978;8.982;2023-07-02T12:26:13;18.48;;;10.05;;
71046;SDS011;58703;48.978;8.982;2023-07-02T12:28:38;18.45;;;10.95;;
71046;SDS011;58703;48.978;8.982;2023-07-02T12:31:04;18.83;;;10.40;;
71046;SDS011;58703;48.978;8.982;2023-07-02T12:33:30;16.42;;;10.27;;
71046;SDS011;58703;48.978;8.982;2023-07-02T12:35:56;17.40;;;10.87;;
71046;SDS011;58703;48.978;8.982;2023-07-02T12:38:24;20.17;;;11.95;;
71046;SDS011;58703;48.978;8.982;2023-07-02T12:40:51;18.73;;;10.45;;
71046;SDS011;58703;48.978;8.982;2023-07-02T12:43:17;20.60;;;10.63;;
71046;SDS011;58703;48.978;8.982;2023-07-02T12:45:44;18.60;;;9.60;;
71046;SDS011;58703;48.978;8.982;2023-07-02T12:48:11;18.38;;;9.63;;
71046;SDS011;58703;48.978;8.982;2023-07-02T12:50:38;22.75;;;11.27;;
71046;SDS011;58703;48.978;8.982;2023-07-02T12:53:06;22.25;;;10.10;;
71046;SDS011;58703;48.978;8.982;2023-07-02T12:55:31;16.00;;;10.43;;
71046;SDS011;58703;48.978;8.982;2023-07-02T12:57:58;19.83;;;9.48;;
71046;SDS011;58703;48.978;8.982;2023-07-02T13:00:25;16.33;;;9.07;;
71046;SDS011;58703;48.978;8.982;2023-07-02T13:02:52;15.82;;;9.65;;
71046;SDS011;58703;48.978;8.982;2023-07-02T13:05:19;18.00;;;9.67;;
71046;SDS011;58703;48.978;8.982;2023-07-02T13:07:45;19.08;;;9.98;;
71046;SDS011;58703;48.978;8.982;2023-07-02T13:10:11;18.13;;;9.98;;
71046;SDS011;58703;48.978;8.982;2023-07-02T13:12:38;18.70;;;10.17;;
71046;SDS011;58703;48.978;8.982;2023-07-02T13:15:03;17.13;;;10.73;;
71046;SDS011;58703;48.978;8.982;2023-07-02T13:17:30;18.80;;;10.05;;
71046;SDS011;58703;48.978;8.982;2023-07-02T13:19:56;15.60;;;9.73;;
71046;SDS011;58703;48.978;8.982;2023-07-02T13:22:22;17.33;;;10.65;;
71046;SDS011;58703;48.978;8.982;2023-07-02T13:24:49;18.67;;;10.15;;
71046;SDS011;58703;48.978;8.982;2023-07-02T13:27:15;14.77;;;9.17;;
71046;SDS011;58703;48.978;8.982;2023-07-02T13:29:43;15.38;;;9.23;;
71046;SDS011;58703;48.978;8.982;2023-07-02T13:32:12;18.70;;;9.98;;
71046;SDS011;58703;48.978;8.982;2023-07-02T13:34:38;21.25;;;9.93;;
71046;SDS011;58703;48.978;8.982;2023-07-02T13:37:05;15.73;;;9.23;;
71046;SDS011;58703;48.978;8.982;2023-07-02T13:39:32;16.67;;;9.83;;
71046;SDS011;58703;48.978;8.982;2023-07-02T13:41:59;16.98;;;10.10;;
71046;SDS011;58703;48.978;8.982;2023-07-02T13:44:27;14.57;;;9.05;;
71046;SDS011;58703;48.978;8.982;2023-07-02T13:46:52;15.63;;;9.23;;
71046;SDS011;58703;48.978;8.982;2023-07-02T13:49:19;18.10;;;10.48;;
71046;SDS011;58703;48.978;8.982;2023-07-02T13:51:48;20.57;;;10.07;;
71046;SDS011;58703;48.978;8.982;2023-07-02T13:54:17;16.63;;;9.68;;
71046;SDS011;58703;48.978;8.982;2023-07-02T13:56:46;15.90;;;9.27;;
71046;SDS011;58703;48.978;8.982;2023-07-02T13:59:12;15.50;;;10.15;;
71046;SDS011;58703;48.978;8.982;2023-07-02T14:01:41;16.77;;;9.43;;
71046;SDS011;58703;48.978;8.982;2023-07-02T14:04:09;16.30;;;9.60;;
71046;SDS011;58703;48.978;8.982;2023-07-02T14:06:37;16.33;;;10.18;;
71046;SDS011;58703;48.978;8.982;2023-07-02T14:09:03;16.73;;;10.68;;
71046;SDS011;58703;48.978;8.982;2023-07-02T14:11:34;16.73;;;10.57;;
71046;SDS011;58703;48.978;8.982;2023-07-02T14:14:02;15.98;;;10.68;;
71046;SDS011;58703;48.978;8.982;2023-07-02T14:16:28;17.37;;;10.53;;
71046;SDS011;58703;48.978;8.982;2023-07-02T14:18:54;15.60;;;10.07;;
71046;SDS011;58703;48.978;8.982;2023-07-02T14:21:21;16.83;;;9.60;;
71046;SDS011;58703;48.978;8.982;2023-07-02T14:23:47;21.67;;;10.50;;
71046;SDS011;58703;48.978;8.982;2023-07-02T14:26:14;16.42;;;10.65;;
71046;SDS011;58703;48.978;8.982;2023-07-02T14:28:41;18.77;;;9.40;;
71046;SDS011;58703;48.978;8.982;2023-07-02T14:31:07;15.43;;;9.27;;
71046;SDS011;58703;48.978;8.982;2023-07-02T14:33:35;15.98;;;10.50;;
71046;SDS011;58703;48.978;8.982;2023-07-02T14:36:02;15.75;;;10.15;;
71046;SDS011;58703;48.978;8.982;2023-07-02T14:38:29;15.88;;;10.23;;
71046;SDS011;58703;48.978;8.982;2023-07-02T14:40:56;16.67;;;9.53;;
71046;SDS011;58703;48.978;8.982;2023-07-02T14:43:26;17.67;;;9.55;;